Terminal Aerodrome Forecast
Issued by NWS Riverton, WY

Home | Current Version | Previous Version | Text Only | Print | Product List | Glossary On
Versions: 1 2 3 4 5 6 7 8 9 10 11 12 13
000
FTUS45 KRIW 231700
TAFRIW
TAF
KRIW 231720Z 2318/2418 30016G25KT P6SM SCT130
     FM232100 30025G35KT P6SM SCT080
     FM240200 29015KT P6SM SCT250
     FM240500 25011KT P6SM SCT250
     FM241200 21008KT P6SM BKN110=

USA.gov is the U.S. government's official web portal to all federal, state and local government web resources and services.